sensor_id;sensor_type;location;lat;lon;timestamp;P1;durP1;ratioP1;P2;durP2;ratioP2
15936;SDS011;9163;48.818;8.976;2024-03-06T00:00:07;6.97;;;4.87;;
15936;SDS011;9163;48.818;8.976;2024-03-06T00:02:34;6.43;;;4.70;;
15936;SDS011;9163;48.818;8.976;2024-03-06T00:05:02;8.97;;;4.90;;
15936;SDS011;9163;48.818;8.976;2024-03-06T00:07:29;9.13;;;5.63;;
15936;SDS011;9163;48.818;8.976;2024-03-06T00:09:58;8.80;;;5.27;;
15936;SDS011;9163;48.818;8.976;2024-03-06T00:12:25;6.63;;;5.10;;
15936;SDS011;9163;48.818;8.976;2024-03-06T00:14:53;6.43;;;4.57;;
15936;SDS011;9163;48.818;8.976;2024-03-06T00:17:20;7.47;;;5.13;;
15936;SDS011;9163;48.818;8.976;2024-03-06T00:19:47;8.17;;;5.07;;
15936;SDS011;9163;48.818;8.976;2024-03-06T00:22:14;7.77;;;5.03;;
15936;SDS011;9163;48.818;8.976;2024-03-06T00:24:42;7.27;;;5.03;;
15936;SDS011;9163;48.818;8.976;2024-03-06T00:27:11;7.57;;;5.00;;
15936;SDS011;9163;48.818;8.976;2024-03-06T00:29:38;6.60;;;4.90;;
15936;SDS011;9163;48.818;8.976;2024-03-06T00:32:05;7.00;;;4.67;;
15936;SDS011;9163;48.818;8.976;2024-03-06T00:34:34;5.70;;;4.67;;
15936;SDS011;9163;48.818;8.976;2024-03-06T00:37:01;6.07;;;4.50;;
15936;SDS011;9163;48.818;8.976;2024-03-06T00:39:28;8.03;;;4.50;;
15936;SDS011;9163;48.818;8.976;2024-03-06T00:41:56;5.50;;;4.03;;
15936;SDS011;9163;48.818;8.976;2024-03-06T00:44:24;6.00;;;4.10;;
15936;SDS011;9163;48.818;8.976;2024-03-06T00:46:51;6.03;;;4.33;;
15936;SDS011;9163;48.818;8.976;2024-03-06T00:49:19;6.60;;;4.63;;
15936;SDS011;9163;48.818;8.976;2024-03-06T00:51:46;7.40;;;4.90;;
15936;SDS011;9163;48.818;8.976;2024-03-06T00:54:13;5.00;;;3.50;;
15936;SDS011;9163;48.818;8.976;2024-03-06T00:56:41;7.67;;;3.90;;
15936;SDS011;9163;48.818;8.976;2024-03-06T00:59:08;5.03;;;3.63;;
15936;SDS011;9163;48.818;8.976;2024-03-06T01:01:37;4.50;;;3.20;;
15936;SDS011;9163;48.818;8.976;2024-03-06T01:04:04;7.13;;;2.83;;
15936;SDS011;9163;48.818;8.976;2024-03-06T01:06:32;6.37;;;3.10;;
15936;SDS011;9163;48.818;8.976;2024-03-06T01:08:59;4.80;;;3.00;;
15936;SDS011;9163;48.818;8.976;2024-03-06T01:11:27;4.97;;;2.53;;
15936;SDS011;9163;48.818;8.976;2024-03-06T01:13:54;5.87;;;2.63;;
15936;SDS011;9163;48.818;8.976;2024-03-06T01:16:21;6.40;;;2.50;;
15936;SDS011;9163;48.818;8.976;2024-03-06T01:18:50;4.37;;;2.50;;
15936;SDS011;9163;48.818;8.976;2024-03-06T01:21:17;5.07;;;2.70;;
15936;SDS011;9163;48.818;8.976;2024-03-06T01:23:44;2.97;;;2.20;;
15936;SDS011;9163;48.818;8.976;2024-03-06T01:26:12;4.63;;;2.40;;
15936;SDS011;9163;48.818;8.976;2024-03-06T01:28:39;6.10;;;2.63;;
15936;SDS011;9163;48.818;8.976;2024-03-06T01:31:06;3.70;;;2.50;;
15936;SDS011;9163;48.818;8.976;2024-03-06T01:33:34;6.13;;;2.40;;
15936;SDS011;9163;48.818;8.976;2024-03-06T01:36:02;4.50;;;2.07;;
15936;SDS011;9163;48.818;8.976;2024-03-06T01:38:30;4.10;;;2.30;;
15936;SDS011;9163;48.818;8.976;2024-03-06T01:40:57;4.70;;;1.90;;
15936;SDS011;9163;48.818;8.976;2024-03-06T01:43:25;4.07;;;2.20;;
15936;SDS011;9163;48.818;8.976;2024-03-06T01:45:52;6.03;;;2.00;;
15936;SDS011;9163;48.818;8.976;2024-03-06T01:48:20;4.23;;;1.70;;
15936;SDS011;9163;48.818;8.976;2024-03-06T01:50:51;3.70;;;2.03;;
15936;SDS011;9163;48.818;8.976;2024-03-06T01:53:21;4.07;;;2.00;;
15936;SDS011;9163;48.818;8.976;2024-03-06T01:55:50;6.10;;;2.33;;
15936;SDS011;9163;48.818;8.976;2024-03-06T01:58:17;2.97;;;1.93;;
15936;SDS011;9163;48.818;8.976;2024-03-06T02:00:46;2.90;;;1.70;;
15936;SDS011;9163;48.818;8.976;2024-03-06T02:03:15;4.60;;;2.10;;
15936;SDS011;9163;48.818;8.976;2024-03-06T02:05:44;4.17;;;1.80;;
15936;SDS011;9163;48.818;8.976;2024-03-06T02:08:13;4.17;;;1.90;;
15936;SDS011;9163;48.818;8.976;2024-03-06T02:10:43;4.97;;;1.80;;
15936;SDS011;9163;48.818;8.976;2024-03-06T02:13:12;2.80;;;2.10;;
15936;SDS011;9163;48.818;8.976;2024-03-06T02:15:40;4.97;;;2.20;;
15936;SDS011;9163;48.818;8.976;2024-03-06T02:18:08;3.17;;;1.90;;
15936;SDS011;9163;48.818;8.976;2024-03-06T02:20:37;3.60;;;1.80;;
15936;SDS011;9163;48.818;8.976;2024-03-06T02:23:05;3.40;;;2.00;;
15936;SDS011;9163;48.818;8.976;2024-03-06T02:25:33;2.87;;;2.00;;
15936;SDS011;9163;48.818;8.976;2024-03-06T02:28:00;5.93;;;2.57;;
15936;SDS011;9163;48.818;8.976;2024-03-06T02:30:27;3.53;;;2.10;;
15936;SDS011;9163;48.818;8.976;2024-03-06T02:32:56;4.77;;;2.30;;
15936;SDS011;9163;48.818;8.976;2024-03-06T02:35:24;3.67;;;2.33;;
15936;SDS011;9163;48.818;8.976;2024-03-06T02:37:52;3.10;;;2.13;;
15936;SDS011;9163;48.818;8.976;2024-03-06T02:40:22;3.70;;;2.10;;
15936;SDS011;9163;48.818;8.976;2024-03-06T02:42:50;4.57;;;2.47;;
15936;SDS011;9163;48.818;8.976;2024-03-06T02:45:17;3.90;;;2.10;;
15936;SDS011;9163;48.818;8.976;2024-03-06T02:47:44;5.13;;;2.30;;
15936;SDS011;9163;48.818;8.976;2024-03-06T02:50:12;4.10;;;2.10;;
15936;SDS011;9163;48.818;8.976;2024-03-06T02:52:39;5.07;;;2.40;;
15936;SDS011;9163;48.818;8.976;2024-03-06T02:55:08;3.83;;;2.10;;
15936;SDS011;9163;48.818;8.976;2024-03-06T02:57:35;5.70;;;2.70;;
15936;SDS011;9163;48.818;8.976;2024-03-06T03:00:03;4.93;;;2.47;;
15936;SDS011;9163;48.818;8.976;2024-03-06T03:02:34;3.60;;;2.40;;
15936;SDS011;9163;48.818;8.976;2024-03-06T03:05:01;3.33;;;2.40;;
15936;SDS011;9163;48.818;8.976;2024-03-06T03:07:30;8.13;;;2.60;;
15936;SDS011;9163;48.818;8.976;2024-03-06T03:09:57;5.27;;;2.80;;
15936;SDS011;9163;48.818;8.976;2024-03-06T03:12:26;5.37;;;2.93;;
15936;SDS011;9163;48.818;8.976;2024-03-06T03:14:53;5.20;;;2.70;;
15936;SDS011;9163;48.818;8.976;2024-03-06T03:17:20;4.40;;;2.60;;
15936;SDS011;9163;48.818;8.976;2024-03-06T03:19:47;6.33;;;3.03;;
15936;SDS011;9163;48.818;8.976;2024-03-06T03:22:15;5.90;;;3.20;;
15936;SDS011;9163;48.818;8.976;2024-03-06T03:24:42;5.23;;;3.30;;
15936;SDS011;9163;48.818;8.976;2024-03-06T03:27:09;4.23;;;2.93;;
15936;SDS011;9163;48.818;8.976;2024-03-06T03:29:38;5.33;;;3.00;;
15936;SDS011;9163;48.818;8.976;2024-03-06T03:32:05;5.03;;;3.07;;
15936;SDS011;9163;48.818;8.976;2024-03-06T03:34:33;5.17;;;3.07;;
15936;SDS011;9163;48.818;8.976;2024-03-06T03:37:01;7.00;;;3.23;;
15936;SDS011;9163;48.818;8.976;2024-03-06T03:39:28;6.57;;;3.10;;
15936;SDS011;9163;48.818;8.976;2024-03-06T03:41:55;5.87;;;3.10;;
15936;SDS011;9163;48.818;8.976;2024-03-06T03:44:22;5.30;;;3.00;;
15936;SDS011;9163;48.818;8.976;2024-03-06T03:46:51;5.60;;;3.10;;
15936;SDS011;9163;48.818;8.976;2024-03-06T03:49:18;3.40;;;3.10;;
15936;SDS011;9163;48.818;8.976;2024-03-06T03:51:45;7.57;;;3.30;;
15936;SDS011;9163;48.818;8.976;2024-03-06T03:54:13;5.33;;;3.20;;
15936;SDS011;9163;48.818;8.976;2024-03-06T03:56:40;5.23;;;3.10;;
15936;SDS011;9163;48.818;8.976;2024-03-06T03:59:07;6.47;;;3.97;;
15936;SDS011;9163;48.818;8.976;2024-03-06T04:01:35;7.50;;;3.47;;
15936;SDS011;9163;48.818;8.976;2024-03-06T04:04:04;5.73;;;3.50;;
15936;SDS011;9163;48.818;8.976;2024-03-06T04:06:32;5.33;;;3.63;;
15936;SDS011;9163;48.818;8.976;2024-03-06T04:08:59;6.80;;;3.70;;
15936;SDS011;9163;48.818;8.976;2024-03-06T04:11:27;7.63;;;3.27;;
15936;SDS011;9163;48.818;8.976;2024-03-06T04:13:55;7.80;;;3.63;;
15936;SDS011;9163;48.818;8.976;2024-03-06T04:16:22;6.57;;;3.90;;
15936;SDS011;9163;48.818;8.976;2024-03-06T04:18:49;9.03;;;4.07;;
15936;SDS011;9163;48.818;8.976;2024-03-06T04:21:18;7.30;;;3.83;;
15936;SDS011;9163;48.818;8.976;2024-03-06T04:23:46;7.13;;;3.70;;
15936;SDS011;9163;48.818;8.976;2024-03-06T04:26:13;5.83;;;3.93;;
15936;SDS011;9163;48.818;8.976;2024-03-06T04:28:42;4.70;;;3.60;;
15936;SDS011;9163;48.818;8.976;2024-03-06T04:31:09;8.80;;;3.70;;
15936;SDS011;9163;48.818;8.976;2024-03-06T04:33:37;5.87;;;4.20;;
15936;SDS011;9163;48.818;8.976;2024-03-06T04:36:04;6.70;;;4.13;;
15936;SDS011;9163;48.818;8.976;2024-03-06T04:38:34;4.83;;;3.70;;
15936;SDS011;9163;48.818;8.976;2024-03-06T04:41:01;6.17;;;4.00;;
15936;SDS011;9163;48.818;8.976;2024-03-06T04:43:28;6.33;;;4.10;;
15936;SDS011;9163;48.818;8.976;2024-03-06T04:45:56;7.67;;;4.17;;
15936;SDS011;9163;48.818;8.976;2024-03-06T04:48:23;5.87;;;4.43;;
15936;SDS011;9163;48.818;8.976;2024-03-06T04:50:51;5.97;;;4.10;;
15936;SDS011;9163;48.818;8.976;2024-03-06T04:53:18;6.90;;;4.07;;
15936;SDS011;9163;48.818;8.976;2024-03-06T04:55:47;7.17;;;3.90;;
15936;SDS011;9163;48.818;8.976;2024-03-06T04:58:14;9.87;;;4.40;;
15936;SDS011;9163;48.818;8.976;2024-03-06T05:00:41;8.03;;;4.47;;
15936;SDS011;9163;48.818;8.976;2024-03-06T05:03:09;6.57;;;3.93;;
15936;SDS011;9163;48.818;8.976;2024-03-06T05:05:36;7.23;;;4.50;;
15936;SDS011;9163;48.818;8.976;2024-03-06T05:08:05;7.37;;;4.27;;
15936;SDS011;9163;48.818;8.976;2024-03-06T05:10:32;7.80;;;4.40;;
15936;SDS011;9163;48.818;8.976;2024-03-06T05:13:02;9.17;;;4.67;;
15936;SDS011;9163;48.818;8.976;2024-03-06T05:15:30;6.67;;;4.10;;
15936;SDS011;9163;48.818;8.976;2024-03-06T05:17:57;4.90;;;3.70;;
15936;SDS011;9163;48.818;8.976;2024-03-06T05:20:26;7.50;;;4.30;;
15936;SDS011;9163;48.818;8.976;2024-03-06T05:22:56;7.13;;;4.50;;
15936;SDS011;9163;48.818;8.976;2024-03-06T05:25:23;7.03;;;4.30;;
15936;SDS011;9163;48.818;8.976;2024-03-06T05:27:51;6.77;;;3.83;;
15936;SDS011;9163;48.818;8.976;2024-03-06T05:30:19;6.60;;;4.77;;
15936;SDS011;9163;48.818;8.976;2024-03-06T05:32:47;7.50;;;4.10;;
15936;SDS011;9163;48.818;8.976;2024-03-06T05:35:14;6.77;;;4.30;;
15936;SDS011;9163;48.818;8.976;2024-03-06T05:37:41;8.43;;;4.90;;
15936;SDS011;9163;48.818;8.976;2024-03-06T05:40:10;8.90;;;4.60;;
15936;SDS011;9163;48.818;8.976;2024-03-06T05:42:38;4.93;;;4.00;;
15936;SDS011;9163;48.818;8.976;2024-03-06T05:45:06;7.47;;;4.43;;
15936;SDS011;9163;48.818;8.976;2024-03-06T05:47:37;6.07;;;4.47;;
15936;SDS011;9163;48.818;8.976;2024-03-06T05:50:05;6.47;;;4.23;;
15936;SDS011;9163;48.818;8.976;2024-03-06T05:52:32;7.27;;;4.27;;
15936;SDS011;9163;48.818;8.976;2024-03-06T05:55:00;7.37;;;4.40;;
15936;SDS011;9163;48.818;8.976;2024-03-06T05:57:27;7.80;;;4.63;;
15936;SDS011;9163;48.818;8.976;2024-03-06T05:59:55;7.00;;;4.23;;
15936;SDS011;9163;48.818;8.976;2024-03-06T06:02:22;8.77;;;4.23;;
15936;SDS011;9163;48.818;8.976;2024-03-06T06:04:51;6.50;;;4.40;;
15936;SDS011;9163;48.818;8.976;2024-03-06T06:07:18;5.57;;;4.00;;
15936;SDS011;9163;48.818;8.976;2024-03-06T06:09:45;6.10;;;4.43;;
15936;SDS011;9163;48.818;8.976;2024-03-06T06:12:12;6.13;;;4.07;;
15936;SDS011;9163;48.818;8.976;2024-03-06T06:14:40;6.97;;;4.37;;
15936;SDS011;9163;48.818;8.976;2024-03-06T06:17:07;6.73;;;4.27;;
15936;SDS011;9163;48.818;8.976;2024-03-06T06:19:34;6.70;;;4.10;;
15936;SDS011;9163;48.818;8.976;2024-03-06T06:22:03;4.83;;;3.93;;
15936;SDS011;9163;48.818;8.976;2024-03-06T06:24:30;5.17;;;4.20;;
15936;SDS011;9163;48.818;8.976;2024-03-06T06:26:57;6.40;;;4.23;;
15936;SDS011;9163;48.818;8.976;2024-03-06T06:29:25;7.33;;;4.20;;
15936;SDS011;9163;48.818;8.976;2024-03-06T06:31:52;8.47;;;4.27;;
15936;SDS011;9163;48.818;8.976;2024-03-06T06:34:19;6.97;;;4.17;;
15936;SDS011;9163;48.818;8.976;2024-03-06T06:36:46;7.10;;;4.40;;
15936;SDS011;9163;48.818;8.976;2024-03-06T06:39:15;8.23;;;5.07;;
15936;SDS011;9163;48.818;8.976;2024-03-06T06:41:42;7.90;;;4.83;;
15936;SDS011;9163;48.818;8.976;2024-03-06T06:44:10;9.10;;;4.70;;
15936;SDS011;9163;48.818;8.976;2024-03-06T06:46:38;7.80;;;4.97;;
15936;SDS011;9163;48.818;8.976;2024-03-06T06:49:05;9.93;;;5.20;;
15936;SDS011;9163;48.818;8.976;2024-03-06T06:51:33;7.50;;;4.77;;
15936;SDS011;9163;48.818;8.976;2024-03-06T06:54:00;7.50;;;4.53;;
15936;SDS011;9163;48.818;8.976;2024-03-06T06:56:29;7.17;;;4.67;;
15936;SDS011;9163;48.818;8.976;2024-03-06T06:58:57;6.67;;;4.47;;
15936;SDS011;9163;48.818;8.976;2024-03-06T07:01:25;11.53;;;4.73;;
15936;SDS011;9163;48.818;8.976;2024-03-06T07:03:53;10.03;;;4.40;;
15936;SDS011;9163;48.818;8.976;2024-03-06T07:06:20;7.93;;;4.67;;
15936;SDS011;9163;48.818;8.976;2024-03-06T07:08:48;7.60;;;4.13;;
15936;SDS011;9163;48.818;8.976;2024-03-06T07:11:16;9.27;;;4.87;;
15936;SDS011;9163;48.818;8.976;2024-03-06T07:13:45;7.03;;;4.30;;
15936;SDS011;9163;48.818;8.976;2024-03-06T07:16:12;6.90;;;4.20;;
15936;SDS011;9163;48.818;8.976;2024-03-06T07:18:40;7.00;;;3.97;;
15936;SDS011;9163;48.818;8.976;2024-03-06T07:21:07;6.57;;;4.33;;
15936;SDS011;9163;48.818;8.976;2024-03-06T07:23:34;5.77;;;4.20;;
15936;SDS011;9163;48.818;8.976;2024-03-06T07:26:02;8.00;;;4.13;;
15936;SDS011;9163;48.818;8.976;2024-03-06T07:28:29;7.83;;;4.47;;
15936;SDS011;9163;48.818;8.976;2024-03-06T07:30:58;6.73;;;4.40;;
15936;SDS011;9163;48.818;8.976;2024-03-06T07:33:25;8.00;;;4.43;;
15936;SDS011;9163;48.818;8.976;2024-03-06T07:35:52;8.93;;;5.60;;
15936;SDS011;9163;48.818;8.976;2024-03-06T07:38:20;6.87;;;4.43;;
15936;SDS011;9163;48.818;8.976;2024-03-06T07:40:47;7.93;;;4.80;;
15936;SDS011;9163;48.818;8.976;2024-03-06T07:43:14;6.13;;;4.43;;
15936;SDS011;9163;48.818;8.976;2024-03-06T07:45:41;8.67;;;4.43;;
15936;SDS011;9163;48.818;8.976;2024-03-06T07:48:10;8.53;;;4.57;;
15936;SDS011;9163;48.818;8.976;2024-03-06T07:50:38;7.10;;;4.53;;
15936;SDS011;9163;48.818;8.976;2024-03-06T07:53:05;7.30;;;4.27;;
15936;SDS011;9163;48.818;8.976;2024-03-06T07:55:32;8.00;;;4.70;;
15936;SDS011;9163;48.818;8.976;2024-03-06T07:58:00;5.87;;;4.63;;
15936;SDS011;9163;48.818;8.976;2024-03-06T08:00:27;8.57;;;5.40;;
15936;SDS011;9163;48.818;8.976;2024-03-06T08:02:55;8.27;;;5.00;;
15936;SDS011;9163;48.818;8.976;2024-03-06T08:05:23;7.83;;;4.53;;
15936;SDS011;9163;48.818;8.976;2024-03-06T08:07:51;7.20;;;4.40;;
15936;SDS011;9163;48.818;8.976;2024-03-06T08:10:18;5.90;;;4.90;;
15936;SDS011;9163;48.818;8.976;2024-03-06T08:12:45;7.00;;;4.47;;
15936;SDS011;9163;48.818;8.976;2024-03-06T08:15:14;9.37;;;5.50;;
15936;SDS011;9163;48.818;8.976;2024-03-06T08:17:42;6.30;;;4.90;;
15936;SDS011;9163;48.818;8.976;2024-03-06T08:20:10;9.17;;;4.70;;
15936;SDS011;9163;48.818;8.976;2024-03-06T08:22:40;8.20;;;5.10;;
15936;SDS011;9163;48.818;8.976;2024-03-06T08:25:08;9.33;;;5.13;;
15936;SDS011;9163;48.818;8.976;2024-03-06T08:27:37;7.63;;;5.00;;
15936;SDS011;9163;48.818;8.976;2024-03-06T08:30:05;8.67;;;5.83;;
15936;SDS011;9163;48.818;8.976;2024-03-06T08:32:34;7.40;;;5.07;;
15936;SDS011;9163;48.818;8.976;2024-03-06T08:35:02;6.53;;;4.93;;
15936;SDS011;9163;48.818;8.976;2024-03-06T08:37:31;6.73;;;4.50;;
15936;SDS011;9163;48.818;8.976;2024-03-06T08:40:00;7.43;;;4.83;;
15936;SDS011;9163;48.818;8.976;2024-03-06T08:42:27;6.87;;;5.20;;
15936;SDS011;9163;48.818;8.976;2024-03-06T08:44:55;8.40;;;4.33;;
15936;SDS011;9163;48.818;8.976;2024-03-06T08:47:23;5.77;;;4.17;;
15936;SDS011;9163;48.818;8.976;2024-03-06T08:49:50;7.67;;;5.00;;
15936;SDS011;9163;48.818;8.976;2024-03-06T08:52:17;6.30;;;5.00;;
15936;SDS011;9163;48.818;8.976;2024-03-06T08:54:45;8.57;;;4.90;;
15936;SDS011;9163;48.818;8.976;2024-03-06T08:57:13;10.30;;;4.90;;
15936;SDS011;9163;48.818;8.976;2024-03-06T08:59:41;7.80;;;4.70;;
15936;SDS011;9163;48.818;8.976;2024-03-06T09:02:12;8.40;;;5.13;;
15936;SDS011;9163;48.818;8.976;2024-03-06T09:04:41;7.90;;;5.03;;
15936;SDS011;9163;48.818;8.976;2024-03-06T09:07:08;7.87;;;4.67;;
15936;SDS011;9163;48.818;8.976;2024-03-06T09:09:36;6.20;;;4.67;;
15936;SDS011;9163;48.818;8.976;2024-03-06T09:12:04;6.57;;;4.87;;
15936;SDS011;9163;48.818;8.976;2024-03-06T09:14:33;9.03;;;5.20;;
15936;SDS011;9163;48.818;8.976;2024-03-06T09:17:01;8.20;;;5.03;;
15936;SDS011;9163;48.818;8.976;2024-03-06T09:19:28;6.33;;;4.70;;
15936;SDS011;9163;48.818;8.976;2024-03-06T09:21:56;8.13;;;4.87;;
15936;SDS011;9163;48.818;8.976;2024-03-06T09:24:24;6.93;;;5.40;;
15936;SDS011;9163;48.818;8.976;2024-03-06T09:26:51;7.67;;;5.43;;
15936;SDS011;9163;48.818;8.976;2024-03-06T09:29:19;7.80;;;5.70;;
15936;SDS011;9163;48.818;8.976;2024-03-06T09:31:48;7.30;;;5.33;;
15936;SDS011;9163;48.818;8.976;2024-03-06T09:34:16;8.57;;;6.20;;
15936;SDS011;9163;48.818;8.976;2024-03-06T09:36:46;8.77;;;5.87;;
15936;SDS011;9163;48.818;8.976;2024-03-06T09:39:14;8.80;;;6.17;;
15936;SDS011;9163;48.818;8.976;2024-03-06T09:41:43;8.27;;;6.40;;
15936;SDS011;9163;48.818;8.976;2024-03-06T09:44:11;8.77;;;6.00;;
15936;SDS011;9163;48.818;8.976;2024-03-06T09:46:40;7.80;;;6.47;;
15936;SDS011;9163;48.818;8.976;2024-03-06T09:49:11;9.87;;;6.97;;
15936;SDS011;9163;48.818;8.976;2024-03-06T09:51:41;9.37;;;6.77;;
15936;SDS011;9163;48.818;8.976;2024-03-06T09:54:11;7.77;;;6.70;;
15936;SDS011;9163;48.818;8.976;2024-03-06T09:56:40;8.17;;;7.20;;
15936;SDS011;9163;48.818;8.976;2024-03-06T09:59:10;8.33;;;7.33;;
15936;SDS011;9163;48.818;8.976;2024-03-06T10:01:39;9.90;;;7.70;;
15936;SDS011;9163;48.818;8.976;2024-03-06T10:04:20;11.13;;;8.37;;
15936;SDS011;9163;48.818;8.976;2024-03-06T10:06:50;12.33;;;8.80;;
15936;SDS011;9163;48.818;8.976;2024-03-06T10:09:20;12.43;;;9.67;;
15936;SDS011;9163;48.818;8.976;2024-03-06T10:11:47;11.43;;;9.80;;
15936;SDS011;9163;48.818;8.976;2024-03-06T10:14:15;11.73;;;9.63;;
15936;SDS011;9163;48.818;8.976;2024-03-06T10:16:55;12.93;;;9.43;;
15936;SDS011;9163;48.818;8.976;2024-03-06T10:19:25;14.63;;;10.53;;
15936;SDS011;9163;48.818;8.976;2024-03-06T10:21:54;17.37;;;11.47;;
15936;SDS011;9163;48.818;8.976;2024-03-06T10:24:23;17.13;;;12.07;;
15936;SDS011;9163;48.818;8.976;2024-03-06T10:26:51;14.30;;;11.37;;
15936;SDS011;9163;48.818;8.976;2024-03-06T10:29:20;15.97;;;13.00;;
15936;SDS011;9163;48.818;8.976;2024-03-06T10:31:50;17.07;;;13.40;;
15936;SDS011;9163;48.818;8.976;2024-03-06T10:34:20;15.20;;;13.27;;
15936;SDS011;9163;48.818;8.976;2024-03-06T10:36:51;16.50;;;13.27;;
15936;SDS011;9163;48.818;8.976;2024-03-06T10:39:21;19.17;;;14.20;;
15936;SDS011;9163;48.818;8.976;2024-03-06T10:41:51;16.63;;;13.50;;
15936;SDS011;9163;48.818;8.976;2024-03-06T10:44:20;17.47;;;13.90;;
15936;SDS011;9163;48.818;8.976;2024-03-06T10:46:51;16.47;;;13.53;;
15936;SDS011;9163;48.818;8.976;2024-03-06T10:49:23;18.10;;;14.80;;
15936;SDS011;9163;48.818;8.976;2024-03-06T10:51:55;18.27;;;14.10;;
15936;SDS011;9163;48.818;8.976;2024-03-06T10:54:26;17.73;;;14.73;;
15936;SDS011;9163;48.818;8.976;2024-03-06T10:56:55;19.80;;;14.43;;
15936;SDS011;9163;48.818;8.976;2024-03-06T10:59:24;19.00;;;14.30;;
15936;SDS011;9163;48.818;8.976;2024-03-06T11:01:54;19.87;;;15.07;;
15936;SDS011;9163;48.818;8.976;2024-03-06T11:04:25;23.20;;;16.37;;
15936;SDS011;9163;48.818;8.976;2024-03-06T11:06:55;18.00;;;14.87;;
15936;SDS011;9163;48.818;8.976;2024-03-06T11:09:23;18.77;;;15.47;;
15936;SDS011;9163;48.818;8.976;2024-03-06T11:11:50;20.77;;;16.27;;
15936;SDS011;9163;48.818;8.976;2024-03-06T11:14:19;22.57;;;17.40;;
15936;SDS011;9163;48.818;8.976;2024-03-06T11:16:58;23.50;;;17.77;;
15936;SDS011;9163;48.818;8.976;2024-03-06T11:19:27;23.57;;;16.87;;
15936;SDS011;9163;48.818;8.976;2024-03-06T11:21:56;25.20;;;17.40;;
15936;SDS011;9163;48.818;8.976;2024-03-06T11:24:31;22.67;;;17.27;;
15936;SDS011;9163;48.818;8.976;2024-03-06T11:26:59;23.73;;;18.03;;
15936;SDS011;9163;48.818;8.976;2024-03-06T11:29:28;22.87;;;16.67;;
15936;SDS011;9163;48.818;8.976;2024-03-06T11:31:57;23.50;;;17.30;;
15936;SDS011;9163;48.818;8.976;2024-03-06T11:34:34;22.27;;;17.03;;
15936;SDS011;9163;48.818;8.976;2024-03-06T11:37:07;22.43;;;17.17;;
15936;SDS011;9163;48.818;8.976;2024-03-06T11:39:36;20.93;;;17.00;;
15936;SDS011;9163;48.818;8.976;2024-03-06T11:42:04;21.80;;;16.53;;
15936;SDS011;9163;48.818;8.976;2024-03-06T11:44:34;25.33;;;17.23;;
15936;SDS011;9163;48.818;8.976;2024-03-06T11:47:02;24.37;;;18.47;;
15936;SDS011;9163;48.818;8.976;2024-03-06T11:49:32;25.17;;;18.17;;
15936;SDS011;9163;48.818;8.976;2024-03-06T11:52:01;25.47;;;17.80;;
15936;SDS011;9163;48.818;8.976;2024-03-06T11:54:32;23.90;;;18.17;;
15936;SDS011;9163;48.818;8.976;2024-03-06T11:57:00;22.00;;;17.00;;
15936;SDS011;9163;48.818;8.976;2024-03-06T11:59:29;26.43;;;17.93;;
15936;SDS011;9163;48.818;8.976;2024-03-06T12:01:57;23.60;;;17.70;;
15936;SDS011;9163;48.818;8.976;2024-03-06T12:04:27;19.80;;;15.90;;
15936;SDS011;9163;48.818;8.976;2024-03-06T12:06:56;21.17;;;16.93;;
15936;SDS011;9163;48.818;8.976;2024-03-06T12:09:23;21.87;;;16.57;;
15936;SDS011;9163;48.818;8.976;2024-03-06T12:11:52;21.30;;;16.07;;
15936;SDS011;9163;48.818;8.976;2024-03-06T12:14:21;21.03;;;16.60;;
15936;SDS011;9163;48.818;8.976;2024-03-06T12:16:54;21.33;;;17.10;;
15936;SDS011;9163;48.818;8.976;2024-03-06T12:19:22;21.93;;;17.10;;
15936;SDS011;9163;48.818;8.976;2024-03-06T12:21:52;21.40;;;17.50;;
15936;SDS011;9163;48.818;8.976;2024-03-06T12:24:19;22.60;;;16.57;;
15936;SDS011;9163;48.818;8.976;2024-03-06T12:26:57;24.37;;;17.03;;
15936;SDS011;9163;48.818;8.976;2024-03-06T12:29:28;21.27;;;15.97;;
15936;SDS011;9163;48.818;8.976;2024-03-06T12:31:57;21.73;;;16.07;;
15936;SDS011;9163;48.818;8.976;2024-03-06T12:34:25;22.07;;;16.10;;
15936;SDS011;9163;48.818;8.976;2024-03-06T12:36:52;19.40;;;15.53;;
15936;SDS011;9163;48.818;8.976;2024-03-06T12:39:19;18.03;;;14.87;;
15936;SDS011;9163;48.818;8.976;2024-03-06T12:41:48;18.57;;;14.90;;
15936;SDS011;9163;48.818;8.976;2024-03-06T12:44:18;17.00;;;14.37;;
15936;SDS011;9163;48.818;8.976;2024-03-06T12:46:46;18.50;;;14.30;;
15936;SDS011;9163;48.818;8.976;2024-03-06T12:49:14;17.63;;;14.73;;
15936;SDS011;9163;48.818;8.976;2024-03-06T12:51:44;18.77;;;14.57;;
15936;SDS011;9163;48.818;8.976;2024-03-06T12:54:11;18.80;;;14.43;;
15936;SDS011;9163;48.818;8.976;2024-03-06T12:56:39;19.13;;;15.00;;
15936;SDS011;9163;48.818;8.976;2024-03-06T12:59:07;20.13;;;15.10;;
15936;SDS011;9163;48.818;8.976;2024-03-06T13:01:36;18.23;;;14.30;;
15936;SDS011;9163;48.818;8.976;2024-03-06T13:04:03;19.13;;;14.83;;
15936;SDS011;9163;48.818;8.976;2024-03-06T13:06:31;19.67;;;15.13;;
15936;SDS011;9163;48.818;8.976;2024-03-06T13:08:59;19.07;;;15.17;;
15936;SDS011;9163;48.818;8.976;2024-03-06T13:11:26;19.90;;;15.97;;
15936;SDS011;9163;48.818;8.976;2024-03-06T13:13:53;18.93;;;15.17;;
15936;SDS011;9163;48.818;8.976;2024-03-06T13:16:20;21.30;;;14.93;;
15936;SDS011;9163;48.818;8.976;2024-03-06T13:18:49;22.37;;;16.53;;
15936;SDS011;9163;48.818;8.976;2024-03-06T13:21:18;21.83;;;16.37;;
15936;SDS011;9163;48.818;8.976;2024-03-06T13:23:45;22.57;;;16.63;;
15936;SDS011;9163;48.818;8.976;2024-03-06T13:26:12;22.37;;;16.90;;
15936;SDS011;9163;48.818;8.976;2024-03-06T13:28:40;19.83;;;16.30;;
15936;SDS011;9163;48.818;8.976;2024-03-06T13:31:07;18.67;;;16.60;;
15936;SDS011;9163;48.818;8.976;2024-03-06T13:33:34;20.67;;;16.70;;
15936;SDS011;9163;48.818;8.976;2024-03-06T13:36:03;19.87;;;15.20;;
15936;SDS011;9163;48.818;8.976;2024-03-06T13:38:32;22.03;;;16.60;;
15936;SDS011;9163;48.818;8.976;2024-03-06T13:40:59;20.53;;;16.17;;
15936;SDS011;9163;48.818;8.976;2024-03-06T13:43:27;22.60;;;16.73;;
15936;SDS011;9163;48.818;8.976;2024-03-06T13:45:55;20.87;;;16.00;;
15936;SDS011;9163;48.818;8.976;2024-03-06T13:48:22;21.27;;;16.23;;
15936;SDS011;9163;48.818;8.976;2024-03-06T13:50:49;21.93;;;16.53;;
15936;SDS011;9163;48.818;8.976;2024-03-06T13:53:18;21.03;;;16.13;;
15936;SDS011;9163;48.818;8.976;2024-03-06T13:55:45;20.33;;;16.37;;
15936;SDS011;9163;48.818;8.976;2024-03-06T13:58:15;22.73;;;16.47;;
15936;SDS011;9163;48.818;8.976;2024-03-06T14:00:42;19.50;;;15.67;;
15936;SDS011;9163;48.818;8.976;2024-03-06T14:03:11;22.53;;;16.87;;
15936;SDS011;9163;48.818;8.976;2024-03-06T14:05:39;22.23;;;17.37;;
15936;SDS011;9163;48.818;8.976;2024-03-06T14:08:06;19.63;;;15.87;;
15936;SDS011;9163;48.818;8.976;2024-03-06T14:10:38;19.87;;;15.73;;
15936;SDS011;9163;48.818;8.976;2024-03-06T14:13:06;20.47;;;15.70;;
15936;SDS011;9163;48.818;8.976;2024-03-06T14:15:34;24.23;;;17.47;;
15936;SDS011;9163;48.818;8.976;2024-03-06T14:18:01;21.23;;;16.37;;
15936;SDS011;9163;48.818;8.976;2024-03-06T14:20:29;24.93;;;17.10;;
15936;SDS011;9163;48.818;8.976;2024-03-06T14:22:57;18.93;;;15.80;;
15936;SDS011;9163;48.818;8.976;2024-03-06T14:25:24;20.60;;;16.73;;
15936;SDS011;9163;48.818;8.976;2024-03-06T14:27:52;23.47;;;17.70;;
15936;SDS011;9163;48.818;8.976;2024-03-06T14:30:20;22.73;;;16.87;;
15936;SDS011;9163;48.818;8.976;2024-03-06T14:32:47;23.07;;;17.23;;
15936;SDS011;9163;48.818;8.976;2024-03-06T14:35:15;24.83;;;17.23;;
15936;SDS011;9163;48.818;8.976;2024-03-06T14:37:42;22.93;;;17.10;;
15936;SDS011;9163;48.818;8.976;2024-03-06T14:40:09;23.77;;;17.43;;
15936;SDS011;9163;48.818;8.976;2024-03-06T14:42:38;24.73;;;17.90;;
15936;SDS011;9163;48.818;8.976;2024-03-06T14:45:07;25.00;;;19.00;;
15936;SDS011;9163;48.818;8.976;2024-03-06T14:47:35;26.33;;;19.67;;
15936;SDS011;9163;48.818;8.976;2024-03-06T14:50:02;26.23;;;19.27;;
15936;SDS011;9163;48.818;8.976;2024-03-06T14:52:30;25.23;;;18.20;;
15936;SDS011;9163;48.818;8.976;2024-03-06T14:54:57;25.67;;;18.37;;
15936;SDS011;9163;48.818;8.976;2024-03-06T14:57:25;25.17;;;19.23;;